sensor_id;sensor_type;location;lat;lon;timestamp;temperature;humidity
439;DHT22;206;48.782;9.252;2022-11-20T00:01:17;7.90;73.80
439;DHT22;206;48.782;9.252;2022-11-20T00:03:44;7.90;74.20
439;DHT22;206;48.782;9.252;2022-11-20T00:06:13;7.90;75.30
439;DHT22;206;48.782;9.252;2022-11-20T00:08:39;7.90;74.80
439;DHT22;206;48.782;9.252;2022-11-20T00:11:08;7.90;74.10
439;DHT22;206;48.782;9.252;2022-11-20T00:13:35;7.90;74.00
439;DHT22;206;48.782;9.252;2022-11-20T00:16:02;8.00;74.10
439;DHT22;206;48.782;9.252;2022-11-20T00:18:28;8.00;74.30
439;DHT22;206;48.782;9.252;2022-11-20T00:20:59;8.00;74.20
439;DHT22;206;48.782;9.252;2022-11-20T00:23:25;8.00;74.10
439;DHT22;206;48.782;9.252;2022-11-20T00:25:50;8.00;74.10
439;DHT22;206;48.782;9.252;2022-11-20T00:28:16;8.00;73.10
439;DHT22;206;48.782;9.252;2022-11-20T00:30:42;8.00;73.40
439;DHT22;206;48.782;9.252;2022-11-20T00:33:07;8.10;73.70
439;DHT22;206;48.782;9.252;2022-11-20T00:35:33;8.10;73.40
439;DHT22;206;48.782;9.252;2022-11-20T00:37:58;8.10;72.30
439;DHT22;206;48.782;9.252;2022-11-20T00:40:24;8.10;72.80
439;DHT22;206;48.782;9.252;2022-11-20T00:42:49;8.20;72.20
439;DHT22;206;48.782;9.252;2022-11-20T00:45:15;8.10;72.10
439;DHT22;206;48.782;9.252;2022-11-20T00:47:40;8.20;72.20
439;DHT22;206;48.782;9.252;2022-11-20T00:50:06;8.20;72.10
439;DHT22;206;48.782;9.252;2022-11-20T00:52:32;8.20;72.60
439;DHT22;206;48.782;9.252;2022-11-20T00:54:57;8.30;72.20
439;DHT22;206;48.782;9.252;2022-11-20T00:57:23;8.30;71.60
439;DHT22;206;48.782;9.252;2022-11-20T00:59:48;8.20;70.60
439;DHT22;206;48.782;9.252;2022-11-20T01:02:14;8.30;71.10
439;DHT22;206;48.782;9.252;2022-11-20T01:04:41;8.30;67.40
439;DHT22;206;48.782;9.252;2022-11-20T01:07:07;8.30;67.30
439;DHT22;206;48.782;9.252;2022-11-20T01:09:33;8.20;65.90
439;DHT22;206;48.782;9.252;2022-11-20T01:11:58;8.20;65.60
439;DHT22;206;48.782;9.252;2022-11-20T01:14:24;8.30;65.30
439;DHT22;206;48.782;9.252;2022-11-20T01:16:51;8.30;64.80
439;DHT22;206;48.782;9.252;2022-11-20T01:19:22;8.30;64.40
439;DHT22;206;48.782;9.252;2022-11-20T01:21:50;8.30;62.70
439;DHT22;206;48.782;9.252;2022-11-20T01:24:18;8.30;63.30
439;DHT22;206;48.782;9.252;2022-11-20T01:26:44;8.30;62.90
439;DHT22;206;48.782;9.252;2022-11-20T01:29:24;8.30;62.40
439;DHT22;206;48.782;9.252;2022-11-20T01:31:50;8.40;63.10
439;DHT22;206;48.782;9.252;2022-11-20T01:34:18;8.40;61.80
439;DHT22;206;48.782;9.252;2022-11-20T01:36:45;8.40;61.00
439;DHT22;206;48.782;9.252;2022-11-20T01:39:13;8.40;61.90
439;DHT22;206;48.782;9.252;2022-11-20T01:41:40;8.40;61.90
439;DHT22;206;48.782;9.252;2022-11-20T01:44:48;8.40;61.40
439;DHT22;206;48.782;9.252;2022-11-20T01:47:17;8.40;62.00
439;DHT22;206;48.782;9.252;2022-11-20T01:49:50;8.40;62.30
439;DHT22;206;48.782;9.252;2022-11-20T01:54:53;8.40;60.60
439;DHT22;206;48.782;9.252;2022-11-20T01:57:20;8.40;61.70
439;DHT22;206;48.782;9.252;2022-11-20T01:59:54;8.30;60.40
439;DHT22;206;48.782;9.252;2022-11-20T02:02:23;8.30;60.90
439;DHT22;206;48.782;9.252;2022-11-20T02:04:51;8.20;59.80
439;DHT22;206;48.782;9.252;2022-11-20T02:07:20;8.20;59.80
439;DHT22;206;48.782;9.252;2022-11-20T02:09:46;8.20;60.70
439;DHT22;206;48.782;9.252;2022-11-20T02:12:12;8.20;61.00
439;DHT22;206;48.782;9.252;2022-11-20T02:14:57;8.20;59.40
439;DHT22;206;48.782;9.252;2022-11-20T02:17:24;8.20;61.30
439;DHT22;206;48.782;9.252;2022-11-20T02:19:51;8.20;59.70
439;DHT22;206;48.782;9.252;2022-11-20T02:22:44;8.20;59.30
439;DHT22;206;48.782;9.252;2022-11-20T02:25:12;8.20;60.50
439;DHT22;206;48.782;9.252;2022-11-20T02:27:38;8.20;59.40
439;DHT22;206;48.782;9.252;2022-11-20T02:30:06;8.30;59.60
439;DHT22;206;48.782;9.252;2022-11-20T02:32:37;8.30;58.10
439;DHT22;206;48.782;9.252;2022-11-20T02:37:54;8.30;56.50
439;DHT22;206;48.782;9.252;2022-11-20T02:40:20;8.30;56.80
439;DHT22;206;48.782;9.252;2022-11-20T02:42:45;8.30;57.20
439;DHT22;206;48.782;9.252;2022-11-20T02:45:11;8.30;55.40
439;DHT22;206;48.782;9.252;2022-11-20T02:47:37;8.20;56.10
439;DHT22;206;48.782;9.252;2022-11-20T02:50:04;8.30;57.60
439;DHT22;206;48.782;9.252;2022-11-20T02:52:30;8.20;56.90
439;DHT22;206;48.782;9.252;2022-11-20T02:54:55;8.20;56.60
439;DHT22;206;48.782;9.252;2022-11-20T02:57:21;8.20;56.60
439;DHT22;206;48.782;9.252;2022-11-20T02:59:46;8.20;56.20
439;DHT22;206;48.782;9.252;2022-11-20T03:02:12;8.20;55.90
439;DHT22;206;48.782;9.252;2022-11-20T03:04:37;8.20;56.50
439;DHT22;206;48.782;9.252;2022-11-20T03:07:03;8.20;57.30
439;DHT22;206;48.782;9.252;2022-11-20T03:09:29;8.20;57.50
439;DHT22;206;48.782;9.252;2022-11-20T03:11:55;8.20;57.50
439;DHT22;206;48.782;9.252;2022-11-20T03:14:21;8.30;57.60
439;DHT22;206;48.782;9.252;2022-11-20T03:16:46;8.30;57.80
439;DHT22;206;48.782;9.252;2022-11-20T03:19:12;8.30;58.10
439;DHT22;206;48.782;9.252;2022-11-20T03:21:38;8.30;58.30
439;DHT22;206;48.782;9.252;2022-11-20T03:24:04;8.40;57.70
439;DHT22;206;48.782;9.252;2022-11-20T03:26:30;8.40;57.70
439;DHT22;206;48.782;9.252;2022-11-20T03:28:58;8.40;57.30
439;DHT22;206;48.782;9.252;2022-11-20T03:31:26;8.50;56.50
439;DHT22;206;48.782;9.252;2022-11-20T03:33:53;8.50;56.80
439;DHT22;206;48.782;9.252;2022-11-20T03:36:20;8.50;55.30
439;DHT22;206;48.782;9.252;2022-11-20T03:38:46;8.50;55.30
439;DHT22;206;48.782;9.252;2022-11-20T03:41:15;8.40;55.00
439;DHT22;206;48.782;9.252;2022-11-20T03:43:40;8.40;54.20
439;DHT22;206;48.782;9.252;2022-11-20T03:46:07;8.40;55.20
439;DHT22;206;48.782;9.252;2022-11-20T03:48:32;8.40;55.60
439;DHT22;206;48.782;9.252;2022-11-20T03:53:37;8.30;55.80
439;DHT22;206;48.782;9.252;2022-11-20T03:56:03;8.20;55.20
439;DHT22;206;48.782;9.252;2022-11-20T03:58:29;8.20;56.30
439;DHT22;206;48.782;9.252;2022-11-20T04:00:55;8.20;56.50
439;DHT22;206;48.782;9.252;2022-11-20T04:03:20;8.20;56.60
439;DHT22;206;48.782;9.252;2022-11-20T04:05:46;8.20;57.10
439;DHT22;206;48.782;9.252;2022-11-20T04:08:11;8.10;56.70
439;DHT22;206;48.782;9.252;2022-11-20T04:10:37;8.10;57.40
439;DHT22;206;48.782;9.252;2022-11-20T04:13:03;8.00;57.40
439;DHT22;206;48.782;9.252;2022-11-20T04:15:28;8.00;57.30
439;DHT22;206;48.782;9.252;2022-11-20T04:17:54;8.10;57.40
439;DHT22;206;48.782;9.252;2022-11-20T04:20:20;8.10;57.30
439;DHT22;206;48.782;9.252;2022-11-20T04:22:45;8.10;57.00
439;DHT22;206;48.782;9.252;2022-11-20T04:25:11;8.10;57.40
439;DHT22;206;48.782;9.252;2022-11-20T04:27:36;8.10;55.50
439;DHT22;206;48.782;9.252;2022-11-20T04:30:02;8.10;56.80
439;DHT22;206;48.782;9.252;2022-11-20T04:32:28;8.10;55.90
439;DHT22;206;48.782;9.252;2022-11-20T04:34:53;8.00;55.70
439;DHT22;206;48.782;9.252;2022-11-20T04:37:19;8.10;56.10
439;DHT22;206;48.782;9.252;2022-11-20T04:39:45;8.10;56.00
439;DHT22;206;48.782;9.252;2022-11-20T04:42:10;8.10;55.50
439;DHT22;206;48.782;9.252;2022-11-20T04:44:54;8.10;55.80
439;DHT22;206;48.782;9.252;2022-11-20T04:47:20;8.10;55.20
439;DHT22;206;48.782;9.252;2022-11-20T04:49:46;8.10;55.10
439;DHT22;206;48.782;9.252;2022-11-20T04:52:12;8.10;55.30
439;DHT22;206;48.782;9.252;2022-11-20T04:54:37;8.00;54.70
439;DHT22;206;48.782;9.252;2022-11-20T04:57:03;8.00;55.10
439;DHT22;206;48.782;9.252;2022-11-20T04:59:29;8.00;54.90
439;DHT22;206;48.782;9.252;2022-11-20T05:01:54;7.90;55.00
439;DHT22;206;48.782;9.252;2022-11-20T05:04:20;7.90;55.20
439;DHT22;206;48.782;9.252;2022-11-20T05:06:45;8.00;56.60
439;DHT22;206;48.782;9.252;2022-11-20T05:09:12;8.00;56.10
439;DHT22;206;48.782;9.252;2022-11-20T05:11:37;8.00;55.60
439;DHT22;206;48.782;9.252;2022-11-20T05:14:03;8.10;55.20
439;DHT22;206;48.782;9.252;2022-11-20T05:16:29;8.10;54.90
439;DHT22;206;48.782;9.252;2022-11-20T05:18:55;8.10;54.90
439;DHT22;206;48.782;9.252;2022-11-20T05:21:21;8.20;54.80
439;DHT22;206;48.782;9.252;2022-11-20T05:23:47;8.10;54.10
439;DHT22;206;48.782;9.252;2022-11-20T05:26:18;8.20;55.30
439;DHT22;206;48.782;9.252;2022-11-20T05:28:45;8.20;55.20
439;DHT22;206;48.782;9.252;2022-11-20T05:31:13;8.20;55.10
439;DHT22;206;48.782;9.252;2022-11-20T05:33:41;8.20;54.10
439;DHT22;206;48.782;9.252;2022-11-20T05:36:07;8.30;54.50
439;DHT22;206;48.782;9.252;2022-11-20T05:38:32;8.30;53.40
439;DHT22;206;48.782;9.252;2022-11-20T05:41:13;8.30;54.60
439;DHT22;206;48.782;9.252;2022-11-20T05:43:40;8.30;53.70
439;DHT22;206;48.782;9.252;2022-11-20T05:46:07;8.30;53.50
439;DHT22;206;48.782;9.252;2022-11-20T05:48:34;8.40;53.60
439;DHT22;206;48.782;9.252;2022-11-20T05:51:02;8.30;53.10
439;DHT22;206;48.782;9.252;2022-11-20T05:53:28;8.30;53.60
439;DHT22;206;48.782;9.252;2022-11-20T05:56:12;8.40;53.80
439;DHT22;206;48.782;9.252;2022-11-20T05:58:38;8.40;53.70
439;DHT22;206;48.782;9.252;2022-11-20T06:01:13;8.40;53.60
439;DHT22;206;48.782;9.252;2022-11-20T06:03:40;8.40;53.00
439;DHT22;206;48.782;9.252;2022-11-20T06:06:08;8.40;53.00
439;DHT22;206;48.782;9.252;2022-11-20T06:08:34;8.40;54.10
439;DHT22;206;48.782;9.252;2022-11-20T06:11:06;8.50;53.10
439;DHT22;206;48.782;9.252;2022-11-20T06:13:32;8.40;53.00
439;DHT22;206;48.782;9.252;2022-11-20T06:15:58;8.40;52.30
439;DHT22;206;48.782;9.252;2022-11-20T06:18:26;8.50;53.10
439;DHT22;206;48.782;9.252;2022-11-20T06:21:09;8.50;53.70
439;DHT22;206;48.782;9.252;2022-11-20T06:23:35;8.50;52.50
439;DHT22;206;48.782;9.252;2022-11-20T06:26:03;8.60;53.20
439;DHT22;206;48.782;9.252;2022-11-20T06:28:29;8.50;52.00
439;DHT22;206;48.782;9.252;2022-11-20T06:30:55;8.60;52.20
439;DHT22;206;48.782;9.252;2022-11-20T06:33:20;8.60;51.90
439;DHT22;206;48.782;9.252;2022-11-20T06:35:46;8.50;51.80
439;DHT22;206;48.782;9.252;2022-11-20T06:38:11;8.50;52.00
439;DHT22;206;48.782;9.252;2022-11-20T06:40:40;8.50;52.10
439;DHT22;206;48.782;9.252;2022-11-20T06:43:06;8.50;52.20
439;DHT22;206;48.782;9.252;2022-11-20T06:45:31;8.50;52.30
439;DHT22;206;48.782;9.252;2022-11-20T06:47:57;8.50;51.70
439;DHT22;206;48.782;9.252;2022-11-20T06:50:23;8.40;52.50
439;DHT22;206;48.782;9.252;2022-11-20T06:52:49;8.40;52.30
439;DHT22;206;48.782;9.252;2022-11-20T06:55:14;8.50;51.90
439;DHT22;206;48.782;9.252;2022-11-20T06:57:40;8.40;52.00
439;DHT22;206;48.782;9.252;2022-11-20T07:00:06;8.40;52.50
439;DHT22;206;48.782;9.252;2022-11-20T07:02:32;8.40;52.00
439;DHT22;206;48.782;9.252;2022-11-20T07:04:57;8.40;52.30
439;DHT22;206;48.782;9.252;2022-11-20T07:07:23;8.40;52.70
439;DHT22;206;48.782;9.252;2022-11-20T07:09:48;8.40;53.00
439;DHT22;206;48.782;9.252;2022-11-20T07:12:14;8.40;52.60
439;DHT22;206;48.782;9.252;2022-11-20T07:14:39;8.30;51.80
439;DHT22;206;48.782;9.252;2022-11-20T07:17:05;8.30;52.00
439;DHT22;206;48.782;9.252;2022-11-20T07:19:30;8.30;52.60
439;DHT22;206;48.782;9.252;2022-11-20T07:21:56;8.40;53.00
439;DHT22;206;48.782;9.252;2022-11-20T07:24:22;8.40;52.00
439;DHT22;206;48.782;9.252;2022-11-20T07:26:47;8.50;52.20
439;DHT22;206;48.782;9.252;2022-11-20T07:29:16;8.50;51.70
439;DHT22;206;48.782;9.252;2022-11-20T07:31:42;8.50;51.30
439;DHT22;206;48.782;9.252;2022-11-20T07:34:08;8.60;51.20
439;DHT22;206;48.782;9.252;2022-11-20T07:36:34;8.70;51.80
439;DHT22;206;48.782;9.252;2022-11-20T07:39:00;8.70;51.60
439;DHT22;206;48.782;9.252;2022-11-20T07:41:25;8.70;50.20
439;DHT22;206;48.782;9.252;2022-11-20T07:43:51;8.70;49.70
439;DHT22;206;48.782;9.252;2022-11-20T07:46:17;8.80;49.90
439;DHT22;206;48.782;9.252;2022-11-20T07:48:42;8.80;50.30
439;DHT22;206;48.782;9.252;2022-11-20T07:51:08;8.90;49.30
439;DHT22;206;48.782;9.252;2022-11-20T07:53:33;9.00;49.70
439;DHT22;206;48.782;9.252;2022-11-20T07:56:00;9.00;49.40
439;DHT22;206;48.782;9.252;2022-11-20T07:58:26;9.20;49.20
439;DHT22;206;48.782;9.252;2022-11-20T08:00:53;9.20;48.10
439;DHT22;206;48.782;9.252;2022-11-20T08:03:19;9.30;48.60
439;DHT22;206;48.782;9.252;2022-11-20T08:05:45;9.30;48.80
439;DHT22;206;48.782;9.252;2022-11-20T08:08:10;9.30;48.00
439;DHT22;206;48.782;9.252;2022-11-20T08:10:36;9.30;48.10
439;DHT22;206;48.782;9.252;2022-11-20T08:13:01;9.30;48.30
439;DHT22;206;48.782;9.252;2022-11-20T08:15:49;9.30;49.00
439;DHT22;206;48.782;9.252;2022-11-20T08:18:18;9.40;48.50
439;DHT22;206;48.782;9.252;2022-11-20T08:20:44;9.40;48.70
439;DHT22;206;48.782;9.252;2022-11-20T08:23:10;9.40;48.40
439;DHT22;206;48.782;9.252;2022-11-20T08:25:37;9.40;48.40
439;DHT22;206;48.782;9.252;2022-11-20T08:28:05;9.40;47.90
439;DHT22;206;48.782;9.252;2022-11-20T08:30:31;9.50;48.00
439;DHT22;206;48.782;9.252;2022-11-20T08:33:05;9.60;47.80
439;DHT22;206;48.782;9.252;2022-11-20T08:35:38;9.70;47.10
439;DHT22;206;48.782;9.252;2022-11-20T08:38:05;9.70;46.30
439;DHT22;206;48.782;9.252;2022-11-20T08:40:31;9.80;46.30
439;DHT22;206;48.782;9.252;2022-11-20T08:42:57;9.80;46.20
439;DHT22;206;48.782;9.252;2022-11-20T08:45:23;9.90;46.60
439;DHT22;206;48.782;9.252;2022-11-20T08:47:48;9.90;46.00
439;DHT22;206;48.782;9.252;2022-11-20T08:50:16;9.90;45.40
439;DHT22;206;48.782;9.252;2022-11-20T08:52:42;10.00;45.50
439;DHT22;206;48.782;9.252;2022-11-20T08:55:09;10.10;43.90
439;DHT22;206;48.782;9.252;2022-11-20T08:57:36;10.10;43.90
439;DHT22;206;48.782;9.252;2022-11-20T09:00:04;10.20;43.90
439;DHT22;206;48.782;9.252;2022-11-20T09:02:30;10.40;43.60
439;DHT22;206;48.782;9.252;2022-11-20T09:04:55;10.40;43.70
439;DHT22;206;48.782;9.252;2022-11-20T09:07:21;10.50;41.90
439;DHT22;206;48.782;9.252;2022-11-20T09:09:47;10.60;42.00
439;DHT22;206;48.782;9.252;2022-11-20T09:12:13;10.60;41.80
439;DHT22;206;48.782;9.252;2022-11-20T09:14:39;10.60;42.10
439;DHT22;206;48.782;9.252;2022-11-20T09:17:04;10.60;41.80
439;DHT22;206;48.782;9.252;2022-11-20T09:19:30;10.60;42.20
439;DHT22;206;48.782;9.252;2022-11-20T09:21:55;10.60;42.50
439;DHT22;206;48.782;9.252;2022-11-20T09:24:21;10.60;43.00
439;DHT22;206;48.782;9.252;2022-11-20T09:26:47;10.60;42.30
439;DHT22;206;48.782;9.252;2022-11-20T09:29:12;10.60;40.90
439;DHT22;206;48.782;9.252;2022-11-20T09:31:38;10.60;41.90
439;DHT22;206;48.782;9.252;2022-11-20T09:34:04;10.60;42.00
439;DHT22;206;48.782;9.252;2022-11-20T09:36:29;10.60;42.20
439;DHT22;206;48.782;9.252;2022-11-20T09:38:55;10.50;41.20
439;DHT22;206;48.782;9.252;2022-11-20T09:41:44;10.40;41.00
439;DHT22;206;48.782;9.252;2022-11-20T09:55:21;10.00;43.30
439;DHT22;206;48.782;9.252;2022-11-20T09:57:48;10.00;43.50
439;DHT22;206;48.782;9.252;2022-11-20T10:00:16;10.10;43.80
439;DHT22;206;48.782;9.252;2022-11-20T10:05:28;10.20;42.90
439;DHT22;206;48.782;9.252;2022-11-20T10:11:19;10.30;44.00
439;DHT22;206;48.782;9.252;2022-11-20T10:13:49;10.30;43.00
439;DHT22;206;48.782;9.252;2022-11-20T10:16:33;10.40;43.00
439;DHT22;206;48.782;9.252;2022-11-20T10:24:55;10.20;42.70
439;DHT22;206;48.782;9.252;2022-11-20T10:27:54;10.10;43.40
439;DHT22;206;48.782;9.252;2022-11-20T10:30:22;10.10;43.80
439;DHT22;206;48.782;9.252;2022-11-20T10:33:16;10.10;43.80
439;DHT22;206;48.782;9.252;2022-11-20T10:35:46;10.10;46.20
439;DHT22;206;48.782;9.252;2022-11-20T10:38:21;10.10;47.90
439;DHT22;206;48.782;9.252;2022-11-20T10:40:53;10.00;51.00
439;DHT22;206;48.782;9.252;2022-11-20T10:43:39;9.90;53.10
439;DHT22;206;48.782;9.252;2022-11-20T10:46:12;9.90;54.60
439;DHT22;206;48.782;9.252;2022-11-20T10:48:40;10.00;54.90
439;DHT22;206;48.782;9.252;2022-11-20T10:56:45;10.10;56.40
439;DHT22;206;48.782;9.252;2022-11-20T11:01:43;10.10;56.00
439;DHT22;206;48.782;9.252;2022-11-20T11:06:59;10.00;56.50
439;DHT22;206;48.782;9.252;2022-11-20T11:09:36;10.10;57.30
439;DHT22;206;48.782;9.252;2022-11-20T11:12:07;10.10;56.80
439;DHT22;206;48.782;9.252;2022-11-20T11:14:51;10.20;57.10
439;DHT22;206;48.782;9.252;2022-11-20T11:17:30;10.30;56.50
439;DHT22;206;48.782;9.252;2022-11-20T11:22:33;10.40;55.60
439;DHT22;206;48.782;9.252;2022-11-20T11:24:59;10.40;55.40
439;DHT22;206;48.782;9.252;2022-11-20T11:27:25;10.40;55.70
439;DHT22;206;48.782;9.252;2022-11-20T11:30:02;10.50;56.10
439;DHT22;206;48.782;9.252;2022-11-20T11:32:30;10.60;56.30
439;DHT22;206;48.782;9.252;2022-11-20T11:35:05;10.70;56.70
439;DHT22;206;48.782;9.252;2022-11-20T11:37:36;10.80;55.60
439;DHT22;206;48.782;9.252;2022-11-20T11:40:08;10.90;54.20
439;DHT22;206;48.782;9.252;2022-11-20T11:42:42;11.00;53.30
439;DHT22;206;48.782;9.252;2022-11-20T11:45:14;11.10;52.60
439;DHT22;206;48.782;9.252;2022-11-20T11:53:17;11.10;50.10
439;DHT22;206;48.782;9.252;2022-11-20T12:01:12;11.20;50.30
439;DHT22;206;48.782;9.252;2022-11-20T12:06:36;11.20;47.90
439;DHT22;206;48.782;9.252;2022-11-20T12:09:05;11.20;47.70
439;DHT22;206;48.782;9.252;2022-11-20T12:12:05;11.30;49.10
439;DHT22;206;48.782;9.252;2022-11-20T12:14:39;11.50;47.60
439;DHT22;206;48.782;9.252;2022-11-20T12:17:11;11.70;46.40
439;DHT22;206;48.782;9.252;2022-11-20T12:19:37;11.70;44.30
439;DHT22;206;48.782;9.252;2022-11-20T12:25:20;11.60;42.20
439;DHT22;206;48.782;9.252;2022-11-20T12:30:33;11.40;41.80
439;DHT22;206;48.782;9.252;2022-11-20T12:33:16;11.50;41.90
439;DHT22;206;48.782;9.252;2022-11-20T12:39:05;11.70;41.20
439;DHT22;206;48.782;9.252;2022-11-20T12:42:00;11.90;40.50
439;DHT22;206;48.782;9.252;2022-11-20T12:56:32;11.70;35.60
439;DHT22;206;48.782;9.252;2022-11-20T13:01:47;11.90;32.50
439;DHT22;206;48.782;9.252;2022-11-20T13:07:27;12.20;31.60
439;DHT22;206;48.782;9.252;2022-11-20T13:09:53;12.30;30.50
439;DHT22;206;48.782;9.252;2022-11-20T13:15:00;12.20;27.80
439;DHT22;206;48.782;9.252;2022-11-20T13:17:36;12.30;26.80
439;DHT22;206;48.782;9.252;2022-11-20T13:20:06;12.30;27.30
439;DHT22;206;48.782;9.252;2022-11-20T13:22:48;12.40;26.80
439;DHT22;206;48.782;9.252;2022-11-20T13:25:30;12.50;27.30
439;DHT22;206;48.782;9.252;2022-11-20T13:27:59;12.40;26.80
439;DHT22;206;48.782;9.252;2022-11-20T13:30:35;12.10;26.20
439;DHT22;206;48.782;9.252;2022-11-20T13:33:06;12.00;27.30
439;DHT22;206;48.782;9.252;2022-11-20T13:35:36;11.90;26.50
439;DHT22;206;48.782;9.252;2022-11-20T13:38:11;11.70;26.40
439;DHT22;206;48.782;9.252;2022-11-20T13:41:00;11.60;27.80
439;DHT22;206;48.782;9.252;2022-11-20T13:43:47;11.50;27.90
439;DHT22;206;48.782;9.252;2022-11-20T13:46:13;11.60;28.40
439;DHT22;206;48.782;9.252;2022-11-20T13:48:45;11.60;28.20
439;DHT22;206;48.782;9.252;2022-11-20T13:51:51;11.50;28.20
439;DHT22;206;48.782;9.252;2022-11-20T13:54:22;11.30;27.80
439;DHT22;206;48.782;9.252;2022-11-20T13:57:14;11.20;27.80
439;DHT22;206;48.782;9.252;2022-11-20T13:59:46;11.10;28.50
439;DHT22;206;48.782;9.252;2022-11-20T14:02:17;11.10;28.60
439;DHT22;206;48.782;9.252;2022-11-20T14:04:46;11.00;28.90
439;DHT22;206;48.782;9.252;2022-11-20T14:07:13;11.10;29.30
439;DHT22;206;48.782;9.252;2022-11-20T14:09:38;11.10;29.40
439;DHT22;206;48.782;9.252;2022-11-20T14:12:15;11.00;29.80
439;DHT22;206;48.782;9.252;2022-11-20T14:14:49;11.00;30.20
439;DHT22;206;48.782;9.252;2022-11-20T14:19:55;11.10;31.60
439;DHT22;206;48.782;9.252;2022-11-20T14:22:25;11.10;31.10
439;DHT22;206;48.782;9.252;2022-11-20T14:27:28;10.80;33.20
439;DHT22;206;48.782;9.252;2022-11-20T14:29:54;10.80;33.20
439;DHT22;206;48.782;9.252;2022-11-20T14:32:23;10.70;33.30
439;DHT22;206;48.782;9.252;2022-11-20T14:34:51;10.60;34.40
439;DHT22;206;48.782;9.252;2022-11-20T14:37:21;10.50;34.30
439;DHT22;206;48.782;9.252;2022-11-20T14:39:55;10.50;34.30
439;DHT22;206;48.782;9.252;2022-11-20T14:42:23;10.50;34.30
439;DHT22;206;48.782;9.252;2022-11-20T14:44:51;10.50;34.30
439;DHT22;206;48.782;9.252;2022-11-20T14:47:29;10.50;34.30
439;DHT22;206;48.782;9.252;2022-11-20T14:49:56;10.50;33.40
439;DHT22;206;48.782;9.252;2022-11-20T14:52:25;10.50;33.80
439;DHT22;206;48.782;9.252;2022-11-20T14:54:53;10.40;34.20
439;DHT22;206;48.782;9.252;2022-11-20T14:57:30;10.40;33.30
439;DHT22;206;48.782;9.252;2022-11-20T15:00:22;10.30;32.90
439;DHT22;206;48.782;9.252;2022-11-20T15:02:50;10.30;33.30
439;DHT22;206;48.782;9.252;2022-11-20T15:05:18;10.20;33.60
439;DHT22;206;48.782;9.252;2022-11-20T15:07:46;10.10;33.40
439;DHT22;206;48.782;9.252;2022-11-20T15:10:19;10.10;34.00
439;DHT22;206;48.782;9.252;2022-11-20T15:12:56;10.10;34.00
439;DHT22;206;48.782;9.252;2022-11-20T15:15:46;10.10;35.10
439;DHT22;206;48.782;9.252;2022-11-20T15:18:18;10.00;35.10
439;DHT22;206;48.782;9.252;2022-11-20T15:20:44;10.00;35.30
439;DHT22;206;48.782;9.252;2022-11-20T15:23:12;9.90;36.30
439;DHT22;206;48.782;9.252;2022-11-20T15:25:41;9.90;37.60
439;DHT22;206;48.782;9.252;2022-11-20T15:28:32;9.90;38.00
439;DHT22;206;48.782;9.252;2022-11-20T15:30:59;9.80;38.40
439;DHT22;206;48.782;9.252;2022-11-20T15:33:25;9.80;38.40
439;DHT22;206;48.782;9.252;2022-11-20T15:35:50;9.70;39.00
439;DHT22;206;48.782;9.252;2022-11-20T15:38:16;9.70;39.60
439;DHT22;206;48.782;9.252;2022-11-20T15:40:42;9.60;40.30
439;DHT22;206;48.782;9.252;2022-11-20T15:43:07;9.60;40.70
439;DHT22;206;48.782;9.252;2022-11-20T15:45:52;9.50;40.60
439;DHT22;206;48.782;9.252;2022-11-20T15:48:24;9.50;40.70
439;DHT22;206;48.782;9.252;2022-11-20T15:51:03;9.40;41.50
439;DHT22;206;48.782;9.252;2022-11-20T15:53:31;9.40;41.10
439;DHT22;206;48.782;9.252;2022-11-20T15:55:56;9.30;41.40
439;DHT22;206;48.782;9.252;2022-11-20T15:58:22;9.30;42.20
439;DHT22;206;48.782;9.252;2022-11-20T16:00:50;9.30;42.30
439;DHT22;206;48.782;9.252;2022-11-20T16:03:16;9.20;42.70
439;DHT22;206;48.782;9.252;2022-11-20T16:05:42;9.20;42.50
439;DHT22;206;48.782;9.252;2022-11-20T16:08:08;9.20;43.60
439;DHT22;206;48.782;9.252;2022-11-20T16:10:34;9.20;43.30
439;DHT22;206;48.782;9.252;2022-11-20T16:12:59;9.20;44.10
439;DHT22;206;48.782;9.252;2022-11-20T16:15:50;9.20;44.10
439;DHT22;206;48.782;9.252;2022-11-20T16:18:19;9.10;43.90
439;DHT22;206;48.782;9.252;2022-11-20T16:20:47;9.10;43.90
439;DHT22;206;48.782;9.252;2022-11-20T16:23:13;9.10;44.00
439;DHT22;206;48.782;9.252;2022-11-20T16:25:41;9.10;44.80
439;DHT22;206;48.782;9.252;2022-11-20T16:28:07;9.10;45.20
439;DHT22;206;48.782;9.252;2022-11-20T16:30:33;9.10;45.40
439;DHT22;206;48.782;9.252;2022-11-20T16:33:00;9.10;45.90
439;DHT22;206;48.782;9.252;2022-11-20T16:35:27;9.10;46.30
439;DHT22;206;48.782;9.252;2022-11-20T16:37:53;9.20;46.10
439;DHT22;206;48.782;9.252;2022-11-20T16:40:19;9.20;46.40
439;DHT22;206;48.782;9.252;2022-11-20T16:42:55;9.20;46.30
439;DHT22;206;48.782;9.252;2022-11-20T16:45:22;9.30;46.00
439;DHT22;206;48.782;9.252;2022-11-20T16:47:50;9.30;46.50
439;DHT22;206;48.782;9.252;2022-11-20T16:50:16;9.40;46.30
439;DHT22;206;48.782;9.252;2022-11-20T16:52:42;9.30;45.20
439;DHT22;206;48.782;9.252;2022-11-20T16:55:10;9.40;44.80
439;DHT22;206;48.782;9.252;2022-11-20T16:57:42;9.40;45.40
439;DHT22;206;48.782;9.252;2022-11-20T17:00:10;9.40;45.00
439;DHT22;206;48.782;9.252;2022-11-20T17:02:36;9.40;45.90
439;DHT22;206;48.782;9.252;2022-11-20T17:05:07;9.50;45.40
439;DHT22;206;48.782;9.252;2022-11-20T17:07:35;9.50;44.30
439;DHT22;206;48.782;9.252;2022-11-20T17:10:05;9.40;44.50
439;DHT22;206;48.782;9.252;2022-11-20T17:12:33;9.50;45.40
439;DHT22;206;48.782;9.252;2022-11-20T17:15:11;9.50;45.80
439;DHT22;206;48.782;9.252;2022-11-20T17:17:42;9.50;46.00
439;DHT22;206;48.782;9.252;2022-11-20T17:20:14;9.50;47.20
439;DHT22;206;48.782;9.252;2022-11-20T17:22:42;9.50;46.40
439;DHT22;206;48.782;9.252;2022-11-20T17:25:08;9.50;46.10
439;DHT22;206;48.782;9.252;2022-11-20T17:27:33;9.50;45.20
439;DHT22;206;48.782;9.252;2022-11-20T17:29:59;9.50;45.20
439;DHT22;206;48.782;9.252;2022-11-20T17:32:25;9.50;45.30
439;DHT22;206;48.782;9.252;2022-11-20T17:34:50;9.50;45.50
439;DHT22;206;48.782;9.252;2022-11-20T17:37:21;9.50;45.60
439;DHT22;206;48.782;9.252;2022-11-20T17:39:47;9.40;45.30
439;DHT22;206;48.782;9.252;2022-11-20T17:42:16;9.40;45.80
439;DHT22;206;48.782;9.252;2022-11-20T17:44:54;9.40;46.00
439;DHT22;206;48.782;9.252;2022-11-20T17:47:23;9.40;45.70
439;DHT22;206;48.782;9.252;2022-11-20T17:49:48;9.40;46.10
439;DHT22;206;48.782;9.252;2022-11-20T17:52:14;9.40;45.20
439;DHT22;206;48.782;9.252;2022-11-20T17:54:40;9.40;44.30
439;DHT22;206;48.782;9.252;2022-11-20T17:57:07;9.40;44.90
439;DHT22;206;48.782;9.252;2022-11-20T17:59:51;9.50;44.30
439;DHT22;206;48.782;9.252;2022-11-20T18:02:17;9.40;44.60
439;DHT22;206;48.782;9.252;2022-11-20T18:04:42;9.40;44.20
439;DHT22;206;48.782;9.252;2022-11-20T18:07:08;9.40;42.60
439;DHT22;206;48.782;9.252;2022-11-20T18:09:33;9.40;43.80
439;DHT22;206;48.782;9.252;2022-11-20T18:11:59;9.40;43.30
439;DHT22;206;48.782;9.252;2022-11-20T18:14:24;9.40;42.80
439;DHT22;206;48.782;9.252;2022-11-20T18:17:11;9.40;41.80
439;DHT22;206;48.782;9.252;2022-11-20T18:19:42;9.40;40.30
439;DHT22;206;48.782;9.252;2022-11-20T18:22:08;9.40;40.60
439;DHT22;206;48.782;9.252;2022-11-20T18:24:35;9.40;39.90
439;DHT22;206;48.782;9.252;2022-11-20T18:27:02;9.40;40.30
439;DHT22;206;48.782;9.252;2022-11-20T18:29:29;9.50;40.70
439;DHT22;206;48.782;9.252;2022-11-20T18:31:56;9.50;39.40